sensor_id;sensor_type;location;lat;lon;timestamp;temperature;humidity
46730;DHT22;32476;50.002;11.854;2024-03-06T00:00:00;5.10;99.90
46730;DHT22;32476;50.002;11.854;2024-03-06T00:02:28;5.20;99.90
46730;DHT22;32476;50.002;11.854;2024-03-06T00:04:54;5.10;99.90
46730;DHT22;32476;50.002;11.854;2024-03-06T00:07:20;5.10;99.90
46730;DHT22;32476;50.002;11.854;2024-03-06T00:09:47;5.10;99.90
46730;DHT22;32476;50.002;11.854;2024-03-06T00:12:13;5.10;99.90
46730;DHT22;32476;50.002;11.854;2024-03-06T00:14:39;5.10;99.90
46730;DHT22;32476;50.002;11.854;2024-03-06T00:17:07;5.10;99.90
46730;DHT22;32476;50.002;11.854;2024-03-06T00:19:33;5.10;99.90
46730;DHT22;32476;50.002;11.854;2024-03-06T00:21:59;5.10;99.90
46730;DHT22;32476;50.002;11.854;2024-03-06T00:24:28;5.00;99.90
46730;DHT22;32476;50.002;11.854;2024-03-06T00:26:54;5.00;99.90
46730;DHT22;32476;50.002;11.854;2024-03-06T00:29:22;4.90;99.90
46730;DHT22;32476;50.002;11.854;2024-03-06T00:31:49;4.90;99.90
46730;DHT22;32476;50.002;11.854;2024-03-06T00:34:16;4.90;99.90
46730;DHT22;32476;50.002;11.854;2024-03-06T00:36:43;4.90;99.90
46730;DHT22;32476;50.002;11.854;2024-03-06T00:39:11;4.80;99.90
46730;DHT22;32476;50.002;11.854;2024-03-06T00:41:40;4.80;99.90
46730;DHT22;32476;50.002;11.854;2024-03-06T00:44:06;4.80;99.90
46730;DHT22;32476;50.002;11.854;2024-03-06T00:46:34;4.80;99.90
46730;DHT22;32476;50.002;11.854;2024-03-06T00:49:00;4.80;99.90
46730;DHT22;32476;50.002;11.854;2024-03-06T00:51:26;4.80;99.90
46730;DHT22;32476;50.002;11.854;2024-03-06T00:53:53;4.80;99.90
46730;DHT22;32476;50.002;11.854;2024-03-06T00:56:19;4.70;99.90
46730;DHT22;32476;50.002;11.854;2024-03-06T00:58:45;4.70;99.90
46730;DHT22;32476;50.002;11.854;2024-03-06T01:01:12;4.70;99.90
46730;DHT22;32476;50.002;11.854;2024-03-06T01:03:38;4.70;99.90
46730;DHT22;32476;50.002;11.854;2024-03-06T01:06:04;4.70;99.90
46730;DHT22;32476;50.002;11.854;2024-03-06T01:08:32;4.70;99.90
46730;DHT22;32476;50.002;11.854;2024-03-06T01:10:58;4.80;99.90
46730;DHT22;32476;50.002;11.854;2024-03-06T01:13:24;4.80;99.90
46730;DHT22;32476;50.002;11.854;2024-03-06T01:15:52;4.80;99.90
46730;DHT22;32476;50.002;11.854;2024-03-06T01:18:17;4.80;99.90
46730;DHT22;32476;50.002;11.854;2024-03-06T01:20:44;4.80;99.90
46730;DHT22;32476;50.002;11.854;2024-03-06T01:23:11;4.90;99.90
46730;DHT22;32476;50.002;11.854;2024-03-06T01:25:37;4.90;99.90
46730;DHT22;32476;50.002;11.854;2024-03-06T01:28:03;4.80;99.90
46730;DHT22;32476;50.002;11.854;2024-03-06T01:30:31;4.80;99.90
46730;DHT22;32476;50.002;11.854;2024-03-06T01:32:57;4.90;99.90
46730;DHT22;32476;50.002;11.854;2024-03-06T01:35:24;4.80;99.90
46730;DHT22;32476;50.002;11.854;2024-03-06T01:37:52;4.90;99.90
46730;DHT22;32476;50.002;11.854;2024-03-06T01:40:18;4.80;99.90
46730;DHT22;32476;50.002;11.854;2024-03-06T01:42:46;4.90;99.90
46730;DHT22;32476;50.002;11.854;2024-03-06T01:45:15;4.90;99.90
46730;DHT22;32476;50.002;11.854;2024-03-06T01:47:41;4.90;99.90
46730;DHT22;32476;50.002;11.854;2024-03-06T01:50:08;4.90;99.90
46730;DHT22;32476;50.002;11.854;2024-03-06T01:52:38;4.90;99.90
46730;DHT22;32476;50.002;11.854;2024-03-06T01:55:07;4.80;99.90
46730;DHT22;32476;50.002;11.854;2024-03-06T01:57:33;4.80;99.90
46730;DHT22;32476;50.002;11.854;2024-03-06T02:00:02;4.80;99.90
46730;DHT22;32476;50.002;11.854;2024-03-06T02:02:29;4.80;99.90
46730;DHT22;32476;50.002;11.854;2024-03-06T02:04:55;4.80;99.90
46730;DHT22;32476;50.002;11.854;2024-03-06T02:07:24;4.70;99.90
46730;DHT22;32476;50.002;11.854;2024-03-06T02:09:50;4.70;99.90
46730;DHT22;32476;50.002;11.854;2024-03-06T02:12:16;4.70;99.90
46730;DHT22;32476;50.002;11.854;2024-03-06T02:14:44;4.70;99.90
46730;DHT22;32476;50.002;11.854;2024-03-06T02:17:10;4.70;99.90
46730;DHT22;32476;50.002;11.854;2024-03-06T02:19:43;4.70;99.90
46730;DHT22;32476;50.002;11.854;2024-03-06T02:22:11;4.70;99.90
46730;DHT22;32476;50.002;11.854;2024-03-06T02:24:37;4.70;99.90
46730;DHT22;32476;50.002;11.854;2024-03-06T02:27:08;4.70;99.90
46730;DHT22;32476;50.002;11.854;2024-03-06T02:29:36;4.70;99.90
46730;DHT22;32476;50.002;11.854;2024-03-06T02:32:03;4.70;99.90
46730;DHT22;32476;50.002;11.854;2024-03-06T02:34:29;4.70;99.90
46730;DHT22;32476;50.002;11.854;2024-03-06T02:36:57;4.70;99.90
46730;DHT22;32476;50.002;11.854;2024-03-06T02:39:23;4.70;99.90
46730;DHT22;32476;50.002;11.854;2024-03-06T02:41:49;4.60;99.90
46730;DHT22;32476;50.002;11.854;2024-03-06T02:44:17;4.70;99.90
46730;DHT22;32476;50.002;11.854;2024-03-06T02:46:48;4.70;99.90
46730;DHT22;32476;50.002;11.854;2024-03-06T02:49:15;4.60;99.90
46730;DHT22;32476;50.002;11.854;2024-03-06T02:51:43;4.60;99.90
46730;DHT22;32476;50.002;11.854;2024-03-06T02:54:09;4.60;99.90
46730;DHT22;32476;50.002;11.854;2024-03-06T02:56:35;4.70;99.90
46730;DHT22;32476;50.002;11.854;2024-03-06T02:59:02;4.60;99.90
46730;DHT22;32476;50.002;11.854;2024-03-06T03:01:29;4.60;99.90
46730;DHT22;32476;50.002;11.854;2024-03-06T03:03:55;4.60;99.90
46730;DHT22;32476;50.002;11.854;2024-03-06T03:06:24;4.60;99.90
46730;DHT22;32476;50.002;11.854;2024-03-06T03:08:50;4.60;99.90
46730;DHT22;32476;50.002;11.854;2024-03-06T03:11:15;4.60;99.90
46730;DHT22;32476;50.002;11.854;2024-03-06T03:13:43;4.60;99.90
46730;DHT22;32476;50.002;11.854;2024-03-06T03:16:16;4.50;99.90
46730;DHT22;32476;50.002;11.854;2024-03-06T03:18:45;4.60;99.90
46730;DHT22;32476;50.002;11.854;2024-03-06T03:21:11;4.60;99.90
46730;DHT22;32476;50.002;11.854;2024-03-06T03:23:39;4.60;99.90
46730;DHT22;32476;50.002;11.854;2024-03-06T03:26:07;4.60;99.90
46730;DHT22;32476;50.002;11.854;2024-03-06T03:28:39;4.60;99.90
46730;DHT22;32476;50.002;11.854;2024-03-06T03:31:07;4.60;99.90
46730;DHT22;32476;50.002;11.854;2024-03-06T03:33:35;4.60;99.90
46730;DHT22;32476;50.002;11.854;2024-03-06T03:36:05;4.50;99.90
46730;DHT22;32476;50.002;11.854;2024-03-06T03:38:35;4.50;99.90
46730;DHT22;32476;50.002;11.854;2024-03-06T03:41:13;4.50;99.90
46730;DHT22;32476;50.002;11.854;2024-03-06T03:43:40;4.50;99.90
46730;DHT22;32476;50.002;11.854;2024-03-06T03:46:07;4.50;99.90
46730;DHT22;32476;50.002;11.854;2024-03-06T03:48:33;4.50;99.90
46730;DHT22;32476;50.002;11.854;2024-03-06T03:51:04;4.50;99.90
46730;DHT22;32476;50.002;11.854;2024-03-06T03:53:33;4.50;99.90
46730;DHT22;32476;50.002;11.854;2024-03-06T03:55:59;4.50;99.90
46730;DHT22;32476;50.002;11.854;2024-03-06T03:58:27;4.50;99.90
46730;DHT22;32476;50.002;11.854;2024-03-06T04:00:53;4.50;99.90
46730;DHT22;32476;50.002;11.854;2024-03-06T04:03:21;4.40;99.90
46730;DHT22;32476;50.002;11.854;2024-03-06T04:05:48;4.30;99.90
46730;DHT22;32476;50.002;11.854;2024-03-06T04:08:15;4.30;99.90
46730;DHT22;32476;50.002;11.854;2024-03-06T04:10:44;4.30;99.90
46730;DHT22;32476;50.002;11.854;2024-03-06T04:13:12;4.30;99.90
46730;DHT22;32476;50.002;11.854;2024-03-06T04:15:40;4.30;99.90
46730;DHT22;32476;50.002;11.854;2024-03-06T04:18:06;4.30;99.90
46730;DHT22;32476;50.002;11.854;2024-03-06T04:20:33;4.30;99.90
46730;DHT22;32476;50.002;11.854;2024-03-06T04:22:59;4.20;99.90
46730;DHT22;32476;50.002;11.854;2024-03-06T04:25:25;4.20;99.90
46730;DHT22;32476;50.002;11.854;2024-03-06T04:27:53;4.20;99.90
46730;DHT22;32476;50.002;11.854;2024-03-06T04:30:19;4.20;99.90
46730;DHT22;32476;50.002;11.854;2024-03-06T04:32:45;4.20;99.90
46730;DHT22;32476;50.002;11.854;2024-03-06T04:35:12;4.10;99.90
46730;DHT22;32476;50.002;11.854;2024-03-06T04:37:38;4.10;99.90
46730;DHT22;32476;50.002;11.854;2024-03-06T04:40:05;4.10;99.90
46730;DHT22;32476;50.002;11.854;2024-03-06T04:42:35;4.00;99.90
46730;DHT22;32476;50.002;11.854;2024-03-06T04:45:11;4.00;99.90
46730;DHT22;32476;50.002;11.854;2024-03-06T04:47:42;4.00;99.90
46730;DHT22;32476;50.002;11.854;2024-03-06T04:50:10;4.00;99.90
46730;DHT22;32476;50.002;11.854;2024-03-06T04:52:37;4.00;99.90
46730;DHT22;32476;50.002;11.854;2024-03-06T04:55:06;4.00;99.90
46730;DHT22;32476;50.002;11.854;2024-03-06T04:57:34;4.00;99.90
46730;DHT22;32476;50.002;11.854;2024-03-06T05:00:00;4.00;99.90
46730;DHT22;32476;50.002;11.854;2024-03-06T05:02:32;4.00;99.90
46730;DHT22;32476;50.002;11.854;2024-03-06T05:05:01;4.00;99.90
46730;DHT22;32476;50.002;11.854;2024-03-06T05:07:28;4.10;99.90
46730;DHT22;32476;50.002;11.854;2024-03-06T05:09:57;4.10;99.90
46730;DHT22;32476;50.002;11.854;2024-03-06T05:12:24;4.10;99.90
46730;DHT22;32476;50.002;11.854;2024-03-06T05:14:52;4.10;99.90
46730;DHT22;32476;50.002;11.854;2024-03-06T05:17:20;4.10;99.90
46730;DHT22;32476;50.002;11.854;2024-03-06T05:19:46;4.10;99.90
46730;DHT22;32476;50.002;11.854;2024-03-06T05:22:16;4.10;99.90
46730;DHT22;32476;50.002;11.854;2024-03-06T05:24:44;4.10;99.90
46730;DHT22;32476;50.002;11.854;2024-03-06T05:27:10;4.10;99.90
46730;DHT22;32476;50.002;11.854;2024-03-06T05:29:39;4.20;99.90
46730;DHT22;32476;50.002;11.854;2024-03-06T05:32:07;4.10;99.90
46730;DHT22;32476;50.002;11.854;2024-03-06T05:34:33;4.20;99.90
46730;DHT22;32476;50.002;11.854;2024-03-06T05:37:00;4.20;99.90
46730;DHT22;32476;50.002;11.854;2024-03-06T05:39:28;4.20;99.90
46730;DHT22;32476;50.002;11.854;2024-03-06T05:42:02;4.10;99.90
46730;DHT22;32476;50.002;11.854;2024-03-06T05:44:34;4.20;99.90
46730;DHT22;32476;50.002;11.854;2024-03-06T05:47:01;4.10;99.90
46730;DHT22;32476;50.002;11.854;2024-03-06T05:49:28;4.10;99.90
46730;DHT22;32476;50.002;11.854;2024-03-06T05:51:56;4.10;99.90
46730;DHT22;32476;50.002;11.854;2024-03-06T05:54:22;4.20;99.90
46730;DHT22;32476;50.002;11.854;2024-03-06T05:56:49;4.20;99.90
46730;DHT22;32476;50.002;11.854;2024-03-06T05:59:18;4.20;99.90
46730;DHT22;32476;50.002;11.854;2024-03-06T06:01:44;4.10;99.90
46730;DHT22;32476;50.002;11.854;2024-03-06T06:04:14;4.20;99.90
46730;DHT22;32476;50.002;11.854;2024-03-06T06:06:41;4.20;99.90
46730;DHT22;32476;50.002;11.854;2024-03-06T06:09:07;4.10;99.90
46730;DHT22;32476;50.002;11.854;2024-03-06T06:11:39;4.10;99.90
46730;DHT22;32476;50.002;11.854;2024-03-06T06:14:06;4.20;99.90
46730;DHT22;32476;50.002;11.854;2024-03-06T06:16:39;4.20;99.90
46730;DHT22;32476;50.002;11.854;2024-03-06T06:19:10;4.20;99.90
46730;DHT22;32476;50.002;11.854;2024-03-06T06:21:36;4.20;99.90
46730;DHT22;32476;50.002;11.854;2024-03-06T06:24:03;4.10;99.90
46730;DHT22;32476;50.002;11.854;2024-03-06T06:26:31;4.20;99.90
46730;DHT22;32476;50.002;11.854;2024-03-06T06:28:58;4.20;99.90
46730;DHT22;32476;50.002;11.854;2024-03-06T06:31:24;4.20;99.90
46730;DHT22;32476;50.002;11.854;2024-03-06T06:33:53;4.20;99.90
46730;DHT22;32476;50.002;11.854;2024-03-06T06:36:19;4.20;99.90
46730;DHT22;32476;50.002;11.854;2024-03-06T06:38:49;4.20;99.90
46730;DHT22;32476;50.002;11.854;2024-03-06T06:41:17;4.20;99.90
46730;DHT22;32476;50.002;11.854;2024-03-06T06:43:43;4.20;99.90
46730;DHT22;32476;50.002;11.854;2024-03-06T06:46:09;4.20;99.90
46730;DHT22;32476;50.002;11.854;2024-03-06T06:48:36;4.20;99.90
46730;DHT22;32476;50.002;11.854;2024-03-06T06:51:03;4.20;99.90
46730;DHT22;32476;50.002;11.854;2024-03-06T06:53:30;4.20;99.90
46730;DHT22;32476;50.002;11.854;2024-03-06T06:56:00;4.20;99.90
46730;DHT22;32476;50.002;11.854;2024-03-06T06:58:26;4.20;99.90
46730;DHT22;32476;50.002;11.854;2024-03-06T07:00:54;4.20;99.90
46730;DHT22;32476;50.002;11.854;2024-03-06T07:03:22;4.20;99.90
46730;DHT22;32476;50.002;11.854;2024-03-06T07:05:48;4.30;99.90
46730;DHT22;32476;50.002;11.854;2024-03-06T07:08:14;4.30;99.90
46730;DHT22;32476;50.002;11.854;2024-03-06T07:10:42;4.30;99.90
46730;DHT22;32476;50.002;11.854;2024-03-06T07:13:08;4.30;99.90
46730;DHT22;32476;50.002;11.854;2024-03-06T07:15:33;4.30;99.90
46730;DHT22;32476;50.002;11.854;2024-03-06T07:18:01;4.30;99.90
46730;DHT22;32476;50.002;11.854;2024-03-06T07:20:27;4.30;99.90
46730;DHT22;32476;50.002;11.854;2024-03-06T07:22:52;4.30;99.90
46730;DHT22;32476;50.002;11.854;2024-03-06T07:25:20;4.30;99.90
46730;DHT22;32476;50.002;11.854;2024-03-06T07:27:47;4.30;99.90
46730;DHT22;32476;50.002;11.854;2024-03-06T07:30:13;4.30;99.90
46730;DHT22;32476;50.002;11.854;2024-03-06T07:32:40;4.30;99.90
46730;DHT22;32476;50.002;11.854;2024-03-06T07:35:07;4.30;99.90
46730;DHT22;32476;50.002;11.854;2024-03-06T07:37:33;4.30;99.90
46730;DHT22;32476;50.002;11.854;2024-03-06T07:40:01;4.40;99.90
46730;DHT22;32476;50.002;11.854;2024-03-06T07:42:27;4.40;99.90
46730;DHT22;32476;50.002;11.854;2024-03-06T07:44:53;4.40;99.90
46730;DHT22;32476;50.002;11.854;2024-03-06T07:47:20;4.50;99.90
46730;DHT22;32476;50.002;11.854;2024-03-06T07:49:46;4.60;99.90
46730;DHT22;32476;50.002;11.854;2024-03-06T07:52:12;4.60;99.90
46730;DHT22;32476;50.002;11.854;2024-03-06T07:54:39;4.60;99.90
46730;DHT22;32476;50.002;11.854;2024-03-06T07:57:05;4.70;99.90
46730;DHT22;32476;50.002;11.854;2024-03-06T07:59:31;4.70;99.90
46730;DHT22;32476;50.002;11.854;2024-03-06T08:01:59;4.80;99.90
46730;DHT22;32476;50.002;11.854;2024-03-06T08:04:24;4.80;99.90
46730;DHT22;32476;50.002;11.854;2024-03-06T08:06:52;4.90;99.90
46730;DHT22;32476;50.002;11.854;2024-03-06T08:09:19;4.90;99.90
46730;DHT22;32476;50.002;11.854;2024-03-06T08:11:45;4.90;99.90
46730;DHT22;32476;50.002;11.854;2024-03-06T08:14:11;5.00;99.90
46730;DHT22;32476;50.002;11.854;2024-03-06T08:16:41;4.90;99.90
46730;DHT22;32476;50.002;11.854;2024-03-06T08:19:08;5.00;99.90
46730;DHT22;32476;50.002;11.854;2024-03-06T08:21:33;5.10;99.90
46730;DHT22;32476;50.002;11.854;2024-03-06T08:24:01;5.20;99.90
46730;DHT22;32476;50.002;11.854;2024-03-06T08:26:27;5.10;99.90
46730;DHT22;32476;50.002;11.854;2024-03-06T08:28:53;5.30;99.90
46730;DHT22;32476;50.002;11.854;2024-03-06T08:31:20;5.40;99.90
46730;DHT22;32476;50.002;11.854;2024-03-06T08:33:47;5.50;99.90
46730;DHT22;32476;50.002;11.854;2024-03-06T08:36:13;5.60;99.90
46730;DHT22;32476;50.002;11.854;2024-03-06T08:38:41;5.80;99.90
46730;DHT22;32476;50.002;11.854;2024-03-06T08:41:07;5.60;99.90
46730;DHT22;32476;50.002;11.854;2024-03-06T08:43:32;5.70;99.90
46730;DHT22;32476;50.002;11.854;2024-03-06T08:46:00;5.80;99.90
46730;DHT22;32476;50.002;11.854;2024-03-06T08:48:26;6.00;99.90
46730;DHT22;32476;50.002;11.854;2024-03-06T08:50:52;6.20;99.90
46730;DHT22;32476;50.002;11.854;2024-03-06T08:53:20;6.10;99.90
46730;DHT22;32476;50.002;11.854;2024-03-06T08:55:47;6.30;99.90
46730;DHT22;32476;50.002;11.854;2024-03-06T08:58:12;6.20;99.90
46730;DHT22;32476;50.002;11.854;2024-03-06T09:00:41;6.30;99.90
46730;DHT22;32476;50.002;11.854;2024-03-06T09:03:07;6.20;99.90
46730;DHT22;32476;50.002;11.854;2024-03-06T09:05:33;6.40;99.90
46730;DHT22;32476;50.002;11.854;2024-03-06T09:08:01;6.50;99.90
46730;DHT22;32476;50.002;11.854;2024-03-06T09:10:27;6.60;99.90
46730;DHT22;32476;50.002;11.854;2024-03-06T09:12:54;6.80;99.90
46730;DHT22;32476;50.002;11.854;2024-03-06T09:15:21;6.70;99.90
46730;DHT22;32476;50.002;11.854;2024-03-06T09:17:48;6.60;99.90
46730;DHT22;32476;50.002;11.854;2024-03-06T09:20:14;7.00;99.90
46730;DHT22;32476;50.002;11.854;2024-03-06T09:22:43;6.80;99.90
46730;DHT22;32476;50.002;11.854;2024-03-06T09:25:11;6.80;99.90
46730;DHT22;32476;50.002;11.854;2024-03-06T09:27:39;6.70;99.90
46730;DHT22;32476;50.002;11.854;2024-03-06T09:30:07;6.60;99.90
46730;DHT22;32476;50.002;11.854;2024-03-06T09:32:34;6.80;99.90
46730;DHT22;32476;50.002;11.854;2024-03-06T09:35:00;6.80;99.90
46730;DHT22;32476;50.002;11.854;2024-03-06T09:37:28;6.60;99.90
46730;DHT22;32476;50.002;11.854;2024-03-06T09:39:54;6.70;99.90
46730;DHT22;32476;50.002;11.854;2024-03-06T09:42:21;6.90;99.90
46730;DHT22;32476;50.002;11.854;2024-03-06T09:44:50;7.00;99.90
46730;DHT22;32476;50.002;11.854;2024-03-06T09:47:20;7.00;99.90
46730;DHT22;32476;50.002;11.854;2024-03-06T09:49:54;6.90;99.90
46730;DHT22;32476;50.002;11.854;2024-03-06T09:52:20;6.90;99.90
46730;DHT22;32476;50.002;11.854;2024-03-06T09:54:48;6.50;99.90
46730;DHT22;32476;50.002;11.854;2024-03-06T09:57:15;6.70;99.90
46730;DHT22;32476;50.002;11.854;2024-03-06T09:59:42;6.80;99.90
46730;DHT22;32476;50.002;11.854;2024-03-06T10:02:26;6.70;99.90
46730;DHT22;32476;50.002;11.854;2024-03-06T10:04:57;6.80;99.90
46730;DHT22;32476;50.002;11.854;2024-03-06T10:07:23;6.80;99.90
46730;DHT22;32476;50.002;11.854;2024-03-06T10:09:49;6.90;99.90
46730;DHT22;32476;50.002;11.854;2024-03-06T10:12:18;7.00;99.90
46730;DHT22;32476;50.002;11.854;2024-03-06T10:14:53;7.10;99.90
46730;DHT22;32476;50.002;11.854;2024-03-06T10:17:21;7.20;99.90
46730;DHT22;32476;50.002;11.854;2024-03-06T10:19:52;7.10;99.90
46730;DHT22;32476;50.002;11.854;2024-03-06T10:22:19;7.20;99.90
46730;DHT22;32476;50.002;11.854;2024-03-06T10:24:47;7.20;99.90
46730;DHT22;32476;50.002;11.854;2024-03-06T10:27:15;7.30;99.90
46730;DHT22;32476;50.002;11.854;2024-03-06T10:29:44;7.10;99.90
46730;DHT22;32476;50.002;11.854;2024-03-06T10:32:16;7.10;99.90
46730;DHT22;32476;50.002;11.854;2024-03-06T10:34:44;7.10;99.90
46730;DHT22;32476;50.002;11.854;2024-03-06T10:37:13;7.20;99.90
46730;DHT22;32476;50.002;11.854;2024-03-06T10:39:42;7.10;99.90
46730;DHT22;32476;50.002;11.854;2024-03-06T10:42:13;7.30;99.90
46730;DHT22;32476;50.002;11.854;2024-03-06T10:44:53;7.20;99.90
46730;DHT22;32476;50.002;11.854;2024-03-06T10:47:23;7.20;99.90
46730;DHT22;32476;50.002;11.854;2024-03-06T10:49:55;7.00;99.90
46730;DHT22;32476;50.002;11.854;2024-03-06T10:52:26;6.90;99.90
46730;DHT22;32476;50.002;11.854;2024-03-06T10:54:55;7.00;99.90
46730;DHT22;32476;50.002;11.854;2024-03-06T10:57:25;6.80;99.90
46730;DHT22;32476;50.002;11.854;2024-03-06T10:59:52;6.60;99.90
46730;DHT22;32476;50.002;11.854;2024-03-06T11:02:20;6.70;99.90
46730;DHT22;32476;50.002;11.854;2024-03-06T11:04:49;6.80;99.90
46730;DHT22;32476;50.002;11.854;2024-03-06T11:07:16;6.90;99.90
46730;DHT22;32476;50.002;11.854;2024-03-06T11:09:44;7.00;99.90
46730;DHT22;32476;50.002;11.854;2024-03-06T11:12:10;7.20;99.90
46730;DHT22;32476;50.002;11.854;2024-03-06T11:14:38;7.20;99.90
46730;DHT22;32476;50.002;11.854;2024-03-06T11:17:08;7.40;99.90
46730;DHT22;32476;50.002;11.854;2024-03-06T11:28:18;7.80;99.90
46730;DHT22;32476;50.002;11.854;2024-03-06T11:30:59;7.90;99.90
46730;DHT22;32476;50.002;11.854;2024-03-06T11:33:44;8.00;99.90
46730;DHT22;32476;50.002;11.854;2024-03-06T11:36:24;8.00;99.90
46730;DHT22;32476;50.002;11.854;2024-03-06T11:38:56;8.00;99.90
46730;DHT22;32476;50.002;11.854;2024-03-06T11:41:29;8.10;99.90
46730;DHT22;32476;50.002;11.854;2024-03-06T11:44:01;7.90;99.90
46730;DHT22;32476;50.002;11.854;2024-03-06T11:49:24;7.50;99.90
46730;DHT22;32476;50.002;11.854;2024-03-06T11:51:52;7.60;99.90
46730;DHT22;32476;50.002;11.854;2024-03-06T11:54:20;7.70;99.90
46730;DHT22;32476;50.002;11.854;2024-03-06T11:56:58;7.90;99.90
46730;DHT22;32476;50.002;11.854;2024-03-06T11:59:31;7.70;99.90
46730;DHT22;32476;50.002;11.854;2024-03-06T12:01:59;7.80;99.90
46730;DHT22;32476;50.002;11.854;2024-03-06T12:04:35;7.80;99.90
46730;DHT22;32476;50.002;11.854;2024-03-06T12:07:04;7.90;99.90
46730;DHT22;32476;50.002;11.854;2024-03-06T12:09:35;7.90;99.90
46730;DHT22;32476;50.002;11.854;2024-03-06T12:12:05;7.50;99.90
46730;DHT22;32476;50.002;11.854;2024-03-06T12:14:35;7.60;99.90
46730;DHT22;32476;50.002;11.854;2024-03-06T12:17:02;7.70;99.90
46730;DHT22;32476;50.002;11.854;2024-03-06T12:19:35;7.90;99.90
46730;DHT22;32476;50.002;11.854;2024-03-06T12:22:04;8.10;99.90
46730;DHT22;32476;50.002;11.854;2024-03-06T12:24:32;7.90;99.90
46730;DHT22;32476;50.002;11.854;2024-03-06T12:27:03;7.80;99.90
46730;DHT22;32476;50.002;11.854;2024-03-06T12:29:31;8.10;99.90
46730;DHT22;32476;50.002;11.854;2024-03-06T12:32:00;8.00;99.90
46730;DHT22;32476;50.002;11.854;2024-03-06T12:34:26;8.10;99.90
46730;DHT22;32476;50.002;11.854;2024-03-06T12:36:52;8.10;99.90
46730;DHT22;32476;50.002;11.854;2024-03-06T12:39:20;8.30;99.90
46730;DHT22;32476;50.002;11.854;2024-03-06T12:41:52;8.00;99.90
46730;DHT22;32476;50.002;11.854;2024-03-06T12:44:19;7.60;99.90
46730;DHT22;32476;50.002;11.854;2024-03-06T12:46:47;7.70;99.90
46730;DHT22;32476;50.002;11.854;2024-03-06T12:49:14;7.80;99.90
46730;DHT22;32476;50.002;11.854;2024-03-06T12:51:40;7.80;99.90
46730;DHT22;32476;50.002;11.854;2024-03-06T12:54:07;7.70;99.90
46730;DHT22;32476;50.002;11.854;2024-03-06T12:56:34;7.60;99.90
46730;DHT22;32476;50.002;11.854;2024-03-06T12:59:00;7.70;99.90
46730;DHT22;32476;50.002;11.854;2024-03-06T13:01:27;7.80;99.90
46730;DHT22;32476;50.002;11.854;2024-03-06T13:03:53;7.80;99.90
46730;DHT22;32476;50.002;11.854;2024-03-06T13:06:19;7.90;99.90
46730;DHT22;32476;50.002;11.854;2024-03-06T13:08:46;7.60;99.90
46730;DHT22;32476;50.002;11.854;2024-03-06T13:11:12;7.80;99.90
46730;DHT22;32476;50.002;11.854;2024-03-06T13:13:38;7.80;99.90
46730;DHT22;32476;50.002;11.854;2024-03-06T13:16:06;7.90;99.90
46730;DHT22;32476;50.002;11.854;2024-03-06T13:18:32;7.50;99.90
46730;DHT22;32476;50.002;11.854;2024-03-06T13:20:58;7.30;99.90
46730;DHT22;32476;50.002;11.854;2024-03-06T13:23:27;7.20;99.90
46730;DHT22;32476;50.002;11.854;2024-03-06T13:25:53;7.10;99.90
46730;DHT22;32476;50.002;11.854;2024-03-06T13:28:19;7.20;99.90
46730;DHT22;32476;50.002;11.854;2024-03-06T13:30:48;7.00;99.90
46730;DHT22;32476;50.002;11.854;2024-03-06T13:33:15;7.10;99.90
46730;DHT22;32476;50.002;11.854;2024-03-06T13:35:41;7.30;99.90
46730;DHT22;32476;50.002;11.854;2024-03-06T13:38:09;7.20;99.90
46730;DHT22;32476;50.002;11.854;2024-03-06T13:40:35;7.10;99.90
46730;DHT22;32476;50.002;11.854;2024-03-06T13:43:02;6.90;99.90
46730;DHT22;32476;50.002;11.854;2024-03-06T13:45:29;7.00;99.90
46730;DHT22;32476;50.002;11.854;2024-03-06T13:47:55;7.20;99.90
46730;DHT22;32476;50.002;11.854;2024-03-06T13:50:21;7.50;99.90
46730;DHT22;32476;50.002;11.854;2024-03-06T13:52:51;7.90;99.90
46730;DHT22;32476;50.002;11.854;2024-03-06T13:55:17;8.70;99.90
46730;DHT22;32476;50.002;11.854;2024-03-06T13:57:43;9.20;99.90
46730;DHT22;32476;50.002;11.854;2024-03-06T14:00:11;9.50;99.90
46730;DHT22;32476;50.002;11.854;2024-03-06T14:02:44;9.60;99.90
46730;DHT22;32476;50.002;11.854;2024-03-06T14:05:14;9.20;99.90
46730;DHT22;32476;50.002;11.854;2024-03-06T14:07:41;9.20;99.90
46730;DHT22;32476;50.002;11.854;2024-03-06T14:10:08;8.90;99.90
46730;DHT22;32476;50.002;11.854;2024-03-06T14:12:38;8.50;99.90
46730;DHT22;32476;50.002;11.854;2024-03-06T14:15:07;8.10;99.90
46730;DHT22;32476;50.002;11.854;2024-03-06T14:17:39;8.10;99.90
46730;DHT22;32476;50.002;11.854;2024-03-06T14:20:05;8.00;99.90
46730;DHT22;32476;50.002;11.854;2024-03-06T14:22:31;7.80;99.90
46730;DHT22;32476;50.002;11.854;2024-03-06T14:24:59;7.60;99.90
46730;DHT22;32476;50.002;11.854;2024-03-06T14:27:25;7.60;99.90
46730;DHT22;32476;50.002;11.854;2024-03-06T14:29:51;7.80;99.90
46730;DHT22;32476;50.002;11.854;2024-03-06T14:32:21;8.00;99.90
46730;DHT22;32476;50.002;11.854;2024-03-06T14:34:49;8.60;99.90
46730;DHT22;32476;50.002;11.854;2024-03-06T14:37:16;8.90;99.90
46730;DHT22;32476;50.002;11.854;2024-03-06T14:39:43;8.90;99.90
46730;DHT22;32476;50.002;11.854;2024-03-06T14:42:09;9.00;99.90
46730;DHT22;32476;50.002;11.854;2024-03-06T14:44:35;8.90;99.90
46730;DHT22;32476;50.002;11.854;2024-03-06T14:47:03;8.80;99.90
46730;DHT22;32476;50.002;11.854;2024-03-06T14:49:29;8.70;99.90
46730;DHT22;32476;50.002;11.854;2024-03-06T14:51:55;8.40;99.90
46730;DHT22;32476;50.002;11.854;2024-03-06T14:54:22;7.70;99.90
46730;DHT22;32476;50.002;11.854;2024-03-06T14:56:52;7.10;99.90
46730;DHT22;32476;50.002;11.854;2024-03-06T14:59:18;7.10;99.90
46730;DHT22;32476;50.002;11.854;2024-03-06T15:01:46;7.70;99.90
46730;DHT22;32476;50.002;11.854;2024-03-06T15:04:13;7.70;99.90
46730;DHT22;32476;50.002;11.854;2024-03-06T15:06:40;8.00;99.90
46730;DHT22;32476;50.002;11.854;2024-03-06T15:09:07;7.70;99.90
46730;DHT22;32476;50.002;11.854;2024-03-06T15:11:38;7.40;99.90
46730;DHT22;32476;50.002;11.854;2024-03-06T15:14:05;7.30;99.90
46730;DHT22;32476;50.002;11.854;2024-03-06T15:16:36;7.20;99.90
46730;DHT22;32476;50.002;11.854;2024-03-06T15:19:02;7.30;99.90
46730;DHT22;32476;50.002;11.854;2024-03-06T15:21:29;7.70;99.90
46730;DHT22;32476;50.002;11.854;2024-03-06T15:23:59;7.40;99.90
46730;DHT22;32476;50.002;11.854;2024-03-06T15:26:25;7.60;99.90
46730;DHT22;32476;50.002;11.854;2024-03-06T15:28:51;7.60;99.90
46730;DHT22;32476;50.002;11.854;2024-03-06T15:31:20;7.60;99.90
46730;DHT22;32476;50.002;11.854;2024-03-06T15:33:47;7.60;99.90
46730;DHT22;32476;50.002;11.854;2024-03-06T15:36:16;7.70;99.90
46730;DHT22;32476;50.002;11.854;2024-03-06T15:38:43;7.60;99.90
46730;DHT22;32476;50.002;11.854;2024-03-06T15:41:10;7.20;99.90
46730;DHT22;32476;50.002;11.854;2024-03-06T15:43:37;6.90;99.90